Kaami — C6VO9 — position and weather

sailwx.info

Track history (hours):
 
Tides and Currents Weather Stations Pressure Air Temp Water Temp Dewpoint Dewpoint Depression Visibility Wind Speed Wind Dir Waves Ship Positions

Kaami

Last reported at 2014-Aug-22 22:31 UTC. Time now 2014-Aug-23 17:22 UTC.
Position N 53°56' E 004°54'.

Length 90 m; draft 6 m.

Type: Cargo ship. MMSI: 308542000.

Date/timePositionNaut miles runAvg speedWind from/ knotsBaromVisibWave heightAir tempDewpointWater temp
2014-Aug-22 22:31N 53°56' E 004°54'24 8.2
2014-Aug-22 19:34N 53°32' E 004°47'9 8.5
2014-Aug-22 18:32N 53°24' E 004°42'21 9.3
2014-Aug-22 16:17N 53°05' E 004°28'7 9.5
2014-Aug-22 15:33N 52°59' E 004°22'10 9.6
2014-Aug-22 14:33N 52°50' E 004°15'10 9.6
2014-Aug-22 13:33N 52°43' E 004°05'29 9.7
2014-Aug-22 10:32N 52°22' E 003°31'9 8.9
2014-Aug-22 09:32N 52°16' E 003°21'49 7.9
2014-Aug-22 03:22N 51°39' E 002°28'7 8.9
2014-Aug-22 02:33N 51°34' E 002°21'10 9.6
2014-Aug-22 01:32N 51°26' E 002°11'10 9.5
2014-Aug-22 00:31N 51°17' E 002°06'1210.1
2014-Aug-21 23:22N 51°10' E 001°51'1011.0
2014-Aug-21 22:29N 51°03' E 001°40'4510.3
2014-Aug-21 18:08N 50°28' E 000°55'910.2
2014-Aug-21 17:14N 50°26' E 000°41'710.2
2014-Aug-21 16:33N 50°24' E 000°31'263 7.5
2014-Aug-20 05:33N 47°57' W 005°02'11 8.6
2014-Aug-20 04:18N 47°50' W 004°51'  
2014-Aug-15 18:31N 44°58' W 000°32'  
Track history (hours):
 
Tides and Currents Weather Stations Pressure Air Temp Water Temp Dewpoint Dewpoint Depression Visibility Wind Speed Wind Dir Waves Ship Positions

Kaami

Last reported at 2014-Aug-22 22:31 UTC. Time now 2014-Aug-23 17:22 UTC.
Position N 53°56' E 004°54'.

Length 90 m; draft 6 m.

Type: Cargo ship. MMSI: 308542000.

Date/timePositionNaut miles runAvg speedWind from/ knotsBaromVisibWave heightAir tempDewpointWater temp
2014-Aug-22 22:31N 53°56' E 004°54'24 8.2
2014-Aug-22 19:34N 53°32' E 004°47'9 8.5
2014-Aug-22 18:32N 53°24' E 004°42'21 9.3
2014-Aug-22 16:17N 53°05' E 004°28'7 9.5
2014-Aug-22 15:33N 52°59' E 004°22'10 9.6
2014-Aug-22 14:33N 52°50' E 004°15'10 9.6
2014-Aug-22 13:33N 52°43' E 004°05'29 9.7
2014-Aug-22 10:32N 52°22' E 003°31'9 8.9
2014-Aug-22 09:32N 52°16' E 003°21'49 7.9
2014-Aug-22 03:22N 51°39' E 002°28'7 8.9
2014-Aug-22 02:33N 51°34' E 002°21'10 9.6
2014-Aug-22 01:32N 51°26' E 002°11'10 9.5
2014-Aug-22 00:31N 51°17' E 002°06'1210.1
2014-Aug-21 23:22N 51°10' E 001°51'1011.0
2014-Aug-21 22:29N 51°03' E 001°40'4510.3
2014-Aug-21 18:08N 50°28' E 000°55'910.2
2014-Aug-21 17:14N 50°26' E 000°41'710.2
2014-Aug-21 16:33N 50°24' E 000°31'263 7.5
2014-Aug-20 05:33N 47°57' W 005°02'11 8.6
2014-Aug-20 04:18N 47°50' W 004°51'  
2014-Aug-15 18:31N 44°58' W 000°32'  

Dump ship's entire track history